sensor_id;sensor_type;location;lat;lon;timestamp;P1;durP1;ratioP1;P2;durP2;ratioP2
2784;SDS011;57944;48.722;9.316;2023-08-12T00:01:51;14.43;;;10.90;;
2784;SDS011;57944;48.722;9.316;2023-08-12T00:04:22;12.10;;;9.60;;
2784;SDS011;57944;48.722;9.316;2023-08-12T00:06:52;13.87;;;9.80;;
2784;SDS011;57944;48.722;9.316;2023-08-12T00:09:23;14.23;;;10.50;;
2784;SDS011;57944;48.722;9.316;2023-08-12T00:11:56;13.60;;;9.30;;
2784;SDS011;57944;48.722;9.316;2023-08-12T00:14:27;12.83;;;8.90;;
2784;SDS011;57944;48.722;9.316;2023-08-12T00:16:57;13.83;;;9.63;;
2784;SDS011;57944;48.722;9.316;2023-08-12T00:19:29;14.80;;;10.03;;
2784;SDS011;57944;48.722;9.316;2023-08-12T00:21:59;13.50;;;9.57;;
2784;SDS011;57944;48.722;9.316;2023-08-12T00:24:31;19.03;;;10.33;;
2784;SDS011;57944;48.722;9.316;2023-08-12T00:27:04;18.00;;;11.00;;
2784;SDS011;57944;48.722;9.316;2023-08-12T00:29:36;13.80;;;9.67;;
2784;SDS011;57944;48.722;9.316;2023-08-12T00:32:08;18.73;;;11.27;;
2784;SDS011;57944;48.722;9.316;2023-08-12T00:34:38;13.03;;;10.60;;
2784;SDS011;57944;48.722;9.316;2023-08-12T00:37:09;13.33;;;10.73;;
2784;SDS011;57944;48.722;9.316;2023-08-12T00:39:40;13.80;;;10.10;;
2784;SDS011;57944;48.722;9.316;2023-08-12T00:42:13;16.10;;;9.73;;
2784;SDS011;57944;48.722;9.316;2023-08-12T00:44:44;10.50;;;9.40;;
2784;SDS011;57944;48.722;9.316;2023-08-12T00:47:15;12.40;;;9.47;;
2784;SDS011;57944;48.722;9.316;2023-08-12T00:49:46;12.90;;;9.43;;
2784;SDS011;57944;48.722;9.316;2023-08-12T00:52:17;14.40;;;9.40;;
2784;SDS011;57944;48.722;9.316;2023-08-12T00:54:49;14.37;;;10.70;;
2784;SDS011;57944;48.722;9.316;2023-08-12T00:57:23;11.00;;;9.10;;
2784;SDS011;57944;48.722;9.316;2023-08-12T00:59:53;12.97;;;10.67;;
2784;SDS011;57944;48.722;9.316;2023-08-12T01:02:27;16.07;;;9.80;;
2784;SDS011;57944;48.722;9.316;2023-08-12T01:04:58;15.83;;;9.50;;
2784;SDS011;57944;48.722;9.316;2023-08-12T01:07:29;14.43;;;10.33;;
2784;SDS011;57944;48.722;9.316;2023-08-12T01:10:00;14.20;;;8.97;;
2784;SDS011;57944;48.722;9.316;2023-08-12T01:12:34;12.00;;;9.30;;
2784;SDS011;57944;48.722;9.316;2023-08-12T01:15:12;19.23;;;9.00;;
2784;SDS011;57944;48.722;9.316;2023-08-12T01:17:48;12.53;;;10.10;;
2784;SDS011;57944;48.722;9.316;2023-08-12T01:20:21;12.10;;;8.97;;
2784;SDS011;57944;48.722;9.316;2023-08-12T01:22:56;18.57;;;10.90;;
2784;SDS011;57944;48.722;9.316;2023-08-12T01:25:31;14.60;;;10.00;;
2784;SDS011;57944;48.722;9.316;2023-08-12T01:28:02;10.57;;;8.23;;
2784;SDS011;57944;48.722;9.316;2023-08-12T01:30:33;10.47;;;9.37;;
2784;SDS011;57944;48.722;9.316;2023-08-12T01:33:14;12.30;;;8.93;;
2784;SDS011;57944;48.722;9.316;2023-08-12T01:35:52;12.83;;;8.87;;
2784;SDS011;57944;48.722;9.316;2023-08-12T01:38:28;14.07;;;10.00;;
2784;SDS011;57944;48.722;9.316;2023-08-12T01:41:04;15.77;;;9.20;;
2784;SDS011;57944;48.722;9.316;2023-08-12T01:43:36;11.90;;;9.83;;
2784;SDS011;57944;48.722;9.316;2023-08-12T01:46:07;12.97;;;10.00;;
2784;SDS011;57944;48.722;9.316;2023-08-12T01:48:38;18.97;;;10.47;;
2784;SDS011;57944;48.722;9.316;2023-08-12T01:51:09;12.27;;;10.77;;
2784;SDS011;57944;48.722;9.316;2023-08-12T01:53:41;12.80;;;9.97;;
2784;SDS011;57944;48.722;9.316;2023-08-12T01:56:14;11.83;;;10.60;;
2784;SDS011;57944;48.722;9.316;2023-08-12T01:58:45;14.10;;;9.80;;
2784;SDS011;57944;48.722;9.316;2023-08-12T02:01:15;17.50;;;10.73;;
2784;SDS011;57944;48.722;9.316;2023-08-12T02:03:46;10.33;;;9.23;;
2784;SDS011;57944;48.722;9.316;2023-08-12T02:06:16;14.47;;;10.40;;
2784;SDS011;57944;48.722;9.316;2023-08-12T02:08:47;14.50;;;9.27;;
2784;SDS011;57944;48.722;9.316;2023-08-12T02:11:20;13.80;;;9.70;;
2784;SDS011;57944;48.722;9.316;2023-08-12T02:13:52;11.43;;;8.97;;
2784;SDS011;57944;48.722;9.316;2023-08-12T02:16:22;18.20;;;10.20;;
2784;SDS011;57944;48.722;9.316;2023-08-12T02:18:55;13.00;;;10.50;;
2784;SDS011;57944;48.722;9.316;2023-08-12T02:21:26;10.97;;;9.17;;
2784;SDS011;57944;48.722;9.316;2023-08-12T02:23:56;12.33;;;9.87;;
2784;SDS011;57944;48.722;9.316;2023-08-12T02:26:29;11.37;;;9.73;;
2784;SDS011;57944;48.722;9.316;2023-08-12T02:29:00;16.90;;;9.13;;
2784;SDS011;57944;48.722;9.316;2023-08-12T02:31:30;10.67;;;9.30;;
2784;SDS011;57944;48.722;9.316;2023-08-12T02:34:01;10.83;;;8.67;;
2784;SDS011;57944;48.722;9.316;2023-08-12T02:36:32;10.50;;;8.93;;
2784;SDS011;57944;48.722;9.316;2023-08-12T02:39:02;14.97;;;9.80;;
2784;SDS011;57944;48.722;9.316;2023-08-12T02:41:36;11.37;;;8.90;;
2784;SDS011;57944;48.722;9.316;2023-08-12T02:44:07;10.10;;;8.90;;
2784;SDS011;57944;48.722;9.316;2023-08-12T02:46:38;12.40;;;8.60;;
2784;SDS011;57944;48.722;9.316;2023-08-12T02:49:10;15.87;;;7.43;;
2784;SDS011;57944;48.722;9.316;2023-08-12T02:51:41;11.00;;;9.37;;
2784;SDS011;57944;48.722;9.316;2023-08-12T02:54:12;15.73;;;7.70;;
2784;SDS011;57944;48.722;9.316;2023-08-12T02:56:45;10.17;;;8.60;;
2784;SDS011;57944;48.722;9.316;2023-08-12T02:59:15;11.33;;;8.67;;
2784;SDS011;57944;48.722;9.316;2023-08-12T03:01:46;11.47;;;8.80;;
2784;SDS011;57944;48.722;9.316;2023-08-12T03:04:17;10.27;;;9.20;;
2784;SDS011;57944;48.722;9.316;2023-08-12T03:06:49;17.87;;;8.67;;
2784;SDS011;57944;48.722;9.316;2023-08-12T03:09:19;12.03;;;9.23;;
2784;SDS011;57944;48.722;9.316;2023-08-12T03:11:53;12.30;;;9.57;;
2784;SDS011;57944;48.722;9.316;2023-08-12T03:14:23;10.30;;;9.10;;
2784;SDS011;57944;48.722;9.316;2023-08-12T03:16:58;13.97;;;8.03;;
2784;SDS011;57944;48.722;9.316;2023-08-12T03:19:29;10.57;;;9.03;;
2784;SDS011;57944;48.722;9.316;2023-08-12T03:21:59;11.40;;;7.90;;
2784;SDS011;57944;48.722;9.316;2023-08-12T03:24:31;11.10;;;8.80;;
2784;SDS011;57944;48.722;9.316;2023-08-12T03:27:04;10.33;;;9.00;;
2784;SDS011;57944;48.722;9.316;2023-08-12T03:29:36;15.20;;;8.80;;
2784;SDS011;57944;48.722;9.316;2023-08-12T03:32:07;12.57;;;9.47;;
2784;SDS011;57944;48.722;9.316;2023-08-12T03:34:38;10.90;;;8.80;;
2784;SDS011;57944;48.722;9.316;2023-08-12T03:37:10;13.50;;;7.90;;
2784;SDS011;57944;48.722;9.316;2023-08-12T03:39:41;10.13;;;8.60;;
2784;SDS011;57944;48.722;9.316;2023-08-12T03:42:15;12.60;;;8.70;;
2784;SDS011;57944;48.722;9.316;2023-08-12T03:44:46;12.17;;;9.00;;
2784;SDS011;57944;48.722;9.316;2023-08-12T03:47:17;11.37;;;9.60;;
2784;SDS011;57944;48.722;9.316;2023-08-12T03:49:50;10.73;;;8.87;;
2784;SDS011;57944;48.722;9.316;2023-08-12T03:52:21;11.87;;;10.10;;
2784;SDS011;57944;48.722;9.316;2023-08-12T03:54:52;11.53;;;8.67;;
2784;SDS011;57944;48.722;9.316;2023-08-12T03:57:26;13.23;;;9.23;;
2784;SDS011;57944;48.722;9.316;2023-08-12T03:59:58;11.57;;;8.63;;
2784;SDS011;57944;48.722;9.316;2023-08-12T04:02:39;11.60;;;9.10;;
2784;SDS011;57944;48.722;9.316;2023-08-12T04:05:10;10.77;;;8.80;;
2784;SDS011;57944;48.722;9.316;2023-08-12T04:07:41;13.20;;;8.67;;
2784;SDS011;57944;48.722;9.316;2023-08-12T04:10:13;13.03;;;9.67;;
2784;SDS011;57944;48.722;9.316;2023-08-12T04:12:46;13.93;;;10.17;;
2784;SDS011;57944;48.722;9.316;2023-08-12T04:15:17;10.43;;;8.30;;
2784;SDS011;57944;48.722;9.316;2023-08-12T04:17:48;10.13;;;9.07;;
2784;SDS011;57944;48.722;9.316;2023-08-12T04:20:18;12.60;;;9.70;;
2784;SDS011;57944;48.722;9.316;2023-08-12T04:22:49;11.10;;;9.23;;
2784;SDS011;57944;48.722;9.316;2023-08-12T04:25:21;11.70;;;9.37;;
2784;SDS011;57944;48.722;9.316;2023-08-12T04:27:54;10.77;;;8.90;;
2784;SDS011;57944;48.722;9.316;2023-08-12T04:30:25;11.60;;;10.33;;
2784;SDS011;57944;48.722;9.316;2023-08-12T04:32:56;9.97;;;8.00;;
2784;SDS011;57944;48.722;9.316;2023-08-12T04:35:30;12.17;;;10.10;;
2784;SDS011;57944;48.722;9.316;2023-08-12T04:38:01;11.73;;;8.97;;
2784;SDS011;57944;48.722;9.316;2023-08-12T04:40:33;13.60;;;9.37;;
2784;SDS011;57944;48.722;9.316;2023-08-12T04:43:07;21.43;;;8.67;;
2784;SDS011;57944;48.722;9.316;2023-08-12T04:45:39;11.23;;;8.73;;
2784;SDS011;57944;48.722;9.316;2023-08-12T04:48:15;9.43;;;8.37;;
2784;SDS011;57944;48.722;9.316;2023-08-12T04:50:46;11.07;;;8.77;;
2784;SDS011;57944;48.722;9.316;2023-08-12T04:53:17;12.70;;;8.60;;
2784;SDS011;57944;48.722;9.316;2023-08-12T04:55:49;15.37;;;10.00;;
2784;SDS011;57944;48.722;9.316;2023-08-12T04:58:23;10.37;;;9.10;;
2784;SDS011;57944;48.722;9.316;2023-08-12T05:00:54;10.13;;;9.00;;
2784;SDS011;57944;48.722;9.316;2023-08-12T05:03:24;10.50;;;8.97;;
2784;SDS011;57944;48.722;9.316;2023-08-12T05:05:55;11.87;;;8.07;;
2784;SDS011;57944;48.722;9.316;2023-08-12T05:08:26;11.37;;;8.67;;
2784;SDS011;57944;48.722;9.316;2023-08-12T05:10:57;11.70;;;9.50;;
2784;SDS011;57944;48.722;9.316;2023-08-12T05:13:30;11.20;;;8.20;;
2784;SDS011;57944;48.722;9.316;2023-08-12T05:16:01;12.93;;;9.60;;
2784;SDS011;57944;48.722;9.316;2023-08-12T05:18:32;9.73;;;7.70;;
2784;SDS011;57944;48.722;9.316;2023-08-12T05:21:02;15.80;;;9.10;;
2784;SDS011;57944;48.722;9.316;2023-08-12T05:23:33;10.77;;;8.73;;
2784;SDS011;57944;48.722;9.316;2023-08-12T05:26:03;12.60;;;8.70;;
2784;SDS011;57944;48.722;9.316;2023-08-12T05:28:37;10.80;;;9.13;;
2784;SDS011;57944;48.722;9.316;2023-08-12T05:31:07;15.67;;;10.23;;
2784;SDS011;57944;48.722;9.316;2023-08-12T05:33:38;11.90;;;8.10;;
2784;SDS011;57944;48.722;9.316;2023-08-12T05:36:09;11.13;;;9.43;;
2784;SDS011;57944;48.722;9.316;2023-08-12T05:38:39;9.70;;;8.47;;
2784;SDS011;57944;48.722;9.316;2023-08-12T05:41:10;9.73;;;8.60;;
2784;SDS011;57944;48.722;9.316;2023-08-12T05:43:43;10.17;;;7.73;;
2784;SDS011;57944;48.722;9.316;2023-08-12T05:46:13;9.20;;;8.30;;
2784;SDS011;57944;48.722;9.316;2023-08-12T05:48:44;12.43;;;9.27;;
2784;SDS011;57944;48.722;9.316;2023-08-12T05:51:15;17.53;;;8.80;;
2784;SDS011;57944;48.722;9.316;2023-08-12T05:53:45;9.10;;;8.03;;
2784;SDS011;57944;48.722;9.316;2023-08-12T05:56:17;17.80;;;9.10;;
2784;SDS011;57944;48.722;9.316;2023-08-12T05:58:50;16.33;;;9.03;;
2784;SDS011;57944;48.722;9.316;2023-08-12T06:01:20;19.37;;;9.30;;
2784;SDS011;57944;48.722;9.316;2023-08-12T06:03:51;10.07;;;9.00;;
2784;SDS011;57944;48.722;9.316;2023-08-12T06:06:22;10.17;;;8.80;;
2784;SDS011;57944;48.722;9.316;2023-08-12T06:08:52;13.63;;;10.37;;
2784;SDS011;57944;48.722;9.316;2023-08-12T06:11:23;12.40;;;9.10;;
2784;SDS011;57944;48.722;9.316;2023-08-12T06:13:56;11.50;;;8.80;;
2784;SDS011;57944;48.722;9.316;2023-08-12T06:16:27;11.97;;;9.20;;
2784;SDS011;57944;48.722;9.316;2023-08-12T06:18:57;13.63;;;9.93;;
2784;SDS011;57944;48.722;9.316;2023-08-12T06:21:29;13.47;;;8.53;;
2784;SDS011;57944;48.722;9.316;2023-08-12T06:24:00;11.70;;;8.27;;
2784;SDS011;57944;48.722;9.316;2023-08-12T06:26:31;11.77;;;7.87;;
2784;SDS011;57944;48.722;9.316;2023-08-12T06:29:04;10.07;;;7.90;;
2784;SDS011;57944;48.722;9.316;2023-08-12T06:31:35;9.67;;;8.20;;
2784;SDS011;57944;48.722;9.316;2023-08-12T06:34:05;11.67;;;8.00;;
2784;SDS011;57944;48.722;9.316;2023-08-12T06:36:36;10.93;;;8.53;;
2784;SDS011;57944;48.722;9.316;2023-08-12T06:39:07;13.00;;;8.93;;
2784;SDS011;57944;48.722;9.316;2023-08-12T06:41:37;11.13;;;8.40;;
2784;SDS011;57944;48.722;9.316;2023-08-12T06:44:13;10.23;;;9.23;;
2784;SDS011;57944;48.722;9.316;2023-08-12T06:46:43;9.93;;;8.27;;
2784;SDS011;57944;48.722;9.316;2023-08-12T06:49:14;11.20;;;8.60;;
2784;SDS011;57944;48.722;9.316;2023-08-12T06:51:45;15.77;;;9.13;;
2784;SDS011;57944;48.722;9.316;2023-08-12T06:54:16;10.73;;;9.60;;
2784;SDS011;57944;48.722;9.316;2023-08-12T06:56:49;13.37;;;8.60;;
2784;SDS011;57944;48.722;9.316;2023-08-12T06:59:22;9.70;;;7.73;;
2784;SDS011;57944;48.722;9.316;2023-08-12T07:01:53;8.57;;;7.60;;
2784;SDS011;57944;48.722;9.316;2023-08-12T07:04:23;18.00;;;8.20;;
2784;SDS011;57944;48.722;9.316;2023-08-12T07:06:54;17.80;;;7.43;;
2784;SDS011;57944;48.722;9.316;2023-08-12T07:09:25;15.10;;;7.80;;
2784;SDS011;57944;48.722;9.316;2023-08-12T07:11:55;9.57;;;7.37;;
2784;SDS011;57944;48.722;9.316;2023-08-12T07:14:30;10.83;;;8.10;;
2784;SDS011;57944;48.722;9.316;2023-08-12T07:17:00;11.10;;;7.97;;
2784;SDS011;57944;48.722;9.316;2023-08-12T07:19:31;20.03;;;8.67;;
2784;SDS011;57944;48.722;9.316;2023-08-12T07:22:01;13.83;;;8.53;;
2784;SDS011;57944;48.722;9.316;2023-08-12T07:24:32;8.87;;;7.80;;
2784;SDS011;57944;48.722;9.316;2023-08-12T07:27:03;8.90;;;7.80;;
2784;SDS011;57944;48.722;9.316;2023-08-12T07:29:37;16.57;;;8.83;;
2784;SDS011;57944;48.722;9.316;2023-08-12T07:32:07;10.40;;;7.40;;
2784;SDS011;57944;48.722;9.316;2023-08-12T07:34:39;10.53;;;8.53;;
2784;SDS011;57944;48.722;9.316;2023-08-12T07:37:10;9.00;;;8.20;;
2784;SDS011;57944;48.722;9.316;2023-08-12T07:39:41;9.40;;;7.33;;
2784;SDS011;57944;48.722;9.316;2023-08-12T07:42:12;17.33;;;7.73;;
2784;SDS011;57944;48.722;9.316;2023-08-12T07:44:45;8.73;;;7.03;;
2784;SDS011;57944;48.722;9.316;2023-08-12T07:47:16;10.20;;;7.60;;
2784;SDS011;57944;48.722;9.316;2023-08-12T07:49:46;12.53;;;7.53;;
2784;SDS011;57944;48.722;9.316;2023-08-12T07:52:17;9.80;;;8.00;;
2784;SDS011;57944;48.722;9.316;2023-08-12T07:54:48;9.33;;;7.60;;
2784;SDS011;57944;48.722;9.316;2023-08-12T07:57:18;10.43;;;8.00;;
2784;SDS011;57944;48.722;9.316;2023-08-12T07:59:53;8.37;;;7.53;;
2784;SDS011;57944;48.722;9.316;2023-08-12T08:02:23;11.57;;;8.03;;
2784;SDS011;57944;48.722;9.316;2023-08-12T08:04:54;11.70;;;7.77;;
2784;SDS011;57944;48.722;9.316;2023-08-12T08:07:26;11.03;;;7.83;;
2784;SDS011;57944;48.722;9.316;2023-08-12T08:09:56;9.87;;;7.90;;
2784;SDS011;57944;48.722;9.316;2023-08-12T08:12:28;9.20;;;7.90;;
2784;SDS011;57944;48.722;9.316;2023-08-12T08:15:01;13.77;;;8.07;;
2784;SDS011;57944;48.722;9.316;2023-08-12T08:17:32;8.50;;;7.10;;
2784;SDS011;57944;48.722;9.316;2023-08-12T08:20:05;10.33;;;7.80;;
2784;SDS011;57944;48.722;9.316;2023-08-12T08:22:37;11.33;;;7.90;;
2784;SDS011;57944;48.722;9.316;2023-08-12T08:25:07;12.43;;;7.73;;
2784;SDS011;57944;48.722;9.316;2023-08-12T08:27:38;12.43;;;8.13;;
2784;SDS011;57944;48.722;9.316;2023-08-12T08:30:13;9.23;;;8.37;;
2784;SDS011;57944;48.722;9.316;2023-08-12T08:32:43;8.47;;;7.57;;
2784;SDS011;57944;48.722;9.316;2023-08-12T08:35:15;8.37;;;7.57;;
2784;SDS011;57944;48.722;9.316;2023-08-12T08:37:46;8.10;;;7.30;;
2784;SDS011;57944;48.722;9.316;2023-08-12T08:40:16;8.73;;;7.43;;
2784;SDS011;57944;48.722;9.316;2023-08-12T08:42:48;8.77;;;7.87;;
2784;SDS011;57944;48.722;9.316;2023-08-12T08:45:24;9.00;;;7.90;;
2784;SDS011;57944;48.722;9.316;2023-08-12T08:47:56;8.77;;;7.87;;
2784;SDS011;57944;48.722;9.316;2023-08-12T08:50:28;9.43;;;8.10;;
2784;SDS011;57944;48.722;9.316;2023-08-12T08:53:00;8.10;;;7.00;;
2784;SDS011;57944;48.722;9.316;2023-08-12T08:55:31;8.53;;;6.60;;
2784;SDS011;57944;48.722;9.316;2023-08-12T08:58:02;8.73;;;6.53;;
2784;SDS011;57944;48.722;9.316;2023-08-12T09:00:36;10.80;;;7.20;;
2784;SDS011;57944;48.722;9.316;2023-08-12T09:03:07;7.60;;;6.90;;
2784;SDS011;57944;48.722;9.316;2023-08-12T09:05:39;8.87;;;7.00;;
2784;SDS011;57944;48.722;9.316;2023-08-12T09:08:11;7.77;;;6.90;;
2784;SDS011;57944;48.722;9.316;2023-08-12T09:10:43;7.43;;;6.67;;
2784;SDS011;57944;48.722;9.316;2023-08-12T09:13:15;14.63;;;6.67;;
2784;SDS011;57944;48.722;9.316;2023-08-12T09:15:48;8.13;;;5.83;;
2784;SDS011;57944;48.722;9.316;2023-08-12T09:18:19;11.33;;;5.77;;
2784;SDS011;57944;48.722;9.316;2023-08-12T09:20:51;6.67;;;5.23;;
2784;SDS011;57944;48.722;9.316;2023-08-12T09:23:22;6.60;;;6.00;;
2784;SDS011;57944;48.722;9.316;2023-08-12T09:25:55;6.30;;;5.40;;
2784;SDS011;57944;48.722;9.316;2023-08-12T09:28:25;6.67;;;5.40;;
2784;SDS011;57944;48.722;9.316;2023-08-12T09:31:00;7.00;;;5.80;;
2784;SDS011;57944;48.722;9.316;2023-08-12T09:33:30;8.63;;;5.50;;
2784;SDS011;57944;48.722;9.316;2023-08-12T09:36:01;6.40;;;5.40;;
2784;SDS011;57944;48.722;9.316;2023-08-12T09:38:32;8.90;;;6.53;;
2784;SDS011;57944;48.722;9.316;2023-08-12T09:41:03;7.00;;;5.53;;
2784;SDS011;57944;48.722;9.316;2023-08-12T09:43:34;7.37;;;5.67;;
2784;SDS011;57944;48.722;9.316;2023-08-12T09:46:14;10.10;;;5.97;;
2784;SDS011;57944;48.722;9.316;2023-08-12T09:48:45;12.33;;;5.73;;
2784;SDS011;57944;48.722;9.316;2023-08-12T09:51:15;9.80;;;7.13;;
2784;SDS011;57944;48.722;9.316;2023-08-12T09:53:47;6.07;;;5.33;;
2784;SDS011;57944;48.722;9.316;2023-08-12T09:56:19;8.53;;;5.70;;
2784;SDS011;57944;48.722;9.316;2023-08-12T09:58:54;9.20;;;6.70;;
2784;SDS011;57944;48.722;9.316;2023-08-12T10:01:28;7.93;;;6.50;;
2784;SDS011;57944;48.722;9.316;2023-08-12T10:03:59;7.67;;;6.13;;
2784;SDS011;57944;48.722;9.316;2023-08-12T10:06:31;9.43;;;5.50;;
2784;SDS011;57944;48.722;9.316;2023-08-12T10:09:02;5.83;;;5.00;;
2784;SDS011;57944;48.722;9.316;2023-08-12T10:11:35;6.93;;;4.40;;
2784;SDS011;57944;48.722;9.316;2023-08-12T10:14:06;4.97;;;4.47;;
2784;SDS011;57944;48.722;9.316;2023-08-12T10:16:41;6.37;;;5.17;;
2784;SDS011;57944;48.722;9.316;2023-08-12T10:19:15;8.23;;;4.33;;
2784;SDS011;57944;48.722;9.316;2023-08-12T10:21:48;5.20;;;4.30;;
2784;SDS011;57944;48.722;9.316;2023-08-12T10:24:23;5.60;;;4.83;;
2784;SDS011;57944;48.722;9.316;2023-08-12T10:26:55;8.50;;;4.53;;
2784;SDS011;57944;48.722;9.316;2023-08-12T10:29:25;6.97;;;4.33;;
2784;SDS011;57944;48.722;9.316;2023-08-12T10:32:00;7.63;;;4.30;;
2784;SDS011;57944;48.722;9.316;2023-08-12T10:34:31;5.93;;;4.73;;
2784;SDS011;57944;48.722;9.316;2023-08-12T10:37:02;7.13;;;4.50;;
2784;SDS011;57944;48.722;9.316;2023-08-12T10:39:33;6.13;;;4.60;;
2784;SDS011;57944;48.722;9.316;2023-08-12T10:42:05;7.33;;;5.10;;
2784;SDS011;57944;48.722;9.316;2023-08-12T10:44:38;6.90;;;5.37;;
2784;SDS011;57944;48.722;9.316;2023-08-12T10:47:21;6.50;;;4.53;;
2784;SDS011;57944;48.722;9.316;2023-08-12T10:49:52;6.13;;;5.27;;
2784;SDS011;57944;48.722;9.316;2023-08-12T10:52:26;6.83;;;5.40;;
2784;SDS011;57944;48.722;9.316;2023-08-12T10:57:48;7.53;;;5.20;;
2784;SDS011;57944;48.722;9.316;2023-08-12T11:00:23;6.97;;;6.03;;
2784;SDS011;57944;48.722;9.316;2023-08-12T11:02:57;7.43;;;5.50;;
2784;SDS011;57944;48.722;9.316;2023-08-12T11:05:35;7.83;;;5.27;;
2784;SDS011;57944;48.722;9.316;2023-08-12T11:08:06;7.17;;;4.87;;
2784;SDS011;57944;48.722;9.316;2023-08-12T11:10:37;8.27;;;5.07;;
2784;SDS011;57944;48.722;9.316;2023-08-12T11:13:09;7.07;;;5.80;;
2784;SDS011;57944;48.722;9.316;2023-08-12T11:15:40;10.23;;;5.60;;
2784;SDS011;57944;48.722;9.316;2023-08-12T11:18:15;7.83;;;5.30;;
2784;SDS011;57944;48.722;9.316;2023-08-12T11:20:48;8.23;;;5.60;;
2784;SDS011;57944;48.722;9.316;2023-08-12T11:23:19;5.83;;;5.07;;
2784;SDS011;57944;48.722;9.316;2023-08-12T11:25:50;10.07;;;5.20;;
2784;SDS011;57944;48.722;9.316;2023-08-12T11:28:21;7.63;;;5.73;;
2784;SDS011;57944;48.722;9.316;2023-08-12T11:30:54;7.90;;;5.50;;
2784;SDS011;57944;48.722;9.316;2023-08-12T11:33:28;10.10;;;5.30;;
2784;SDS011;57944;48.722;9.316;2023-08-12T11:36:00;9.43;;;5.43;;
2784;SDS011;57944;48.722;9.316;2023-08-12T11:38:31;8.40;;;5.13;;
2784;SDS011;57944;48.722;9.316;2023-08-12T11:41:02;6.73;;;4.40;;
2784;SDS011;57944;48.722;9.316;2023-08-12T11:43:33;5.53;;;4.43;;
2784;SDS011;57944;48.722;9.316;2023-08-12T11:46:03;9.67;;;4.53;;
2784;SDS011;57944;48.722;9.316;2023-08-12T11:48:36;7.80;;;6.27;;
2784;SDS011;57944;48.722;9.316;2023-08-12T11:51:07;8.70;;;5.40;;
2784;SDS011;57944;48.722;9.316;2023-08-12T11:53:38;5.10;;;4.43;;
2784;SDS011;57944;48.722;9.316;2023-08-12T11:56:09;7.00;;;5.10;;
2784;SDS011;57944;48.722;9.316;2023-08-12T11:58:39;6.57;;;4.30;;
2784;SDS011;57944;48.722;9.316;2023-08-12T12:01:19;7.00;;;6.20;;
2784;SDS011;57944;48.722;9.316;2023-08-12T12:03:53;9.07;;;5.30;;
2784;SDS011;57944;48.722;9.316;2023-08-12T12:06:28;8.63;;;5.53;;
2784;SDS011;57944;48.722;9.316;2023-08-12T12:09:06;7.90;;;5.20;;
2784;SDS011;57944;48.722;9.316;2023-08-12T12:11:37;6.77;;;5.17;;
2784;SDS011;57944;48.722;9.316;2023-08-12T12:14:08;10.20;;;5.83;;
2784;SDS011;57944;48.722;9.316;2023-08-12T12:16:40;12.63;;;5.60;;
2784;SDS011;57944;48.722;9.316;2023-08-12T12:19:16;8.00;;;4.73;;
2784;SDS011;57944;48.722;9.316;2023-08-12T12:21:48;5.87;;;4.43;;
2784;SDS011;57944;48.722;9.316;2023-08-12T12:24:20;7.60;;;4.97;;
2784;SDS011;57944;48.722;9.316;2023-08-12T12:26:50;7.17;;;4.23;;
2784;SDS011;57944;48.722;9.316;2023-08-12T12:29:21;8.93;;;5.30;;
2784;SDS011;57944;48.722;9.316;2023-08-12T12:31:51;9.87;;;5.27;;
2784;SDS011;57944;48.722;9.316;2023-08-12T12:34:25;8.43;;;5.30;;
2784;SDS011;57944;48.722;9.316;2023-08-12T12:36:55;11.23;;;6.40;;
2784;SDS011;57944;48.722;9.316;2023-08-12T12:39:26;7.73;;;6.23;;
2784;SDS011;57944;48.722;9.316;2023-08-12T12:41:57;14.70;;;8.07;;
2784;SDS011;57944;48.722;9.316;2023-08-12T12:44:28;8.43;;;6.70;;
2784;SDS011;57944;48.722;9.316;2023-08-12T12:46:58;10.17;;;7.07;;
2784;SDS011;57944;48.722;9.316;2023-08-12T12:49:32;7.90;;;5.70;;
2784;SDS011;57944;48.722;9.316;2023-08-12T12:52:02;11.20;;;5.90;;
2784;SDS011;57944;48.722;9.316;2023-08-12T12:54:33;10.53;;;6.07;;
2784;SDS011;57944;48.722;9.316;2023-08-12T12:57:04;10.17;;;7.60;;
2784;SDS011;57944;48.722;9.316;2023-08-12T12:59:35;13.47;;;7.90;;
2784;SDS011;57944;48.722;9.316;2023-08-12T13:02:06;10.47;;;7.80;;
2784;SDS011;57944;48.722;9.316;2023-08-12T13:04:40;9.90;;;7.90;;
2784;SDS011;57944;48.722;9.316;2023-08-12T13:07:11;14.50;;;8.70;;
2784;SDS011;57944;48.722;9.316;2023-08-12T13:09:41;11.87;;;9.13;;
2784;SDS011;57944;48.722;9.316;2023-08-12T13:12:12;9.80;;;7.67;;
2784;SDS011;57944;48.722;9.316;2023-08-12T13:14:43;16.30;;;9.37;;
2784;SDS011;57944;48.722;9.316;2023-08-12T13:17:13;13.20;;;8.43;;
2784;SDS011;57944;48.722;9.316;2023-08-12T13:19:46;10.80;;;8.87;;
2784;SDS011;57944;48.722;9.316;2023-08-12T13:22:17;11.13;;;7.67;;
2784;SDS011;57944;48.722;9.316;2023-08-12T13:24:48;8.17;;;6.73;;
2784;SDS011;57944;48.722;9.316;2023-08-12T13:27:19;8.00;;;6.90;;
2784;SDS011;57944;48.722;9.316;2023-08-12T13:29:49;10.67;;;8.07;;
2784;SDS011;57944;48.722;9.316;2023-08-12T13:32:20;13.17;;;7.60;;
2784;SDS011;57944;48.722;9.316;2023-08-12T13:34:53;10.37;;;7.00;;
2784;SDS011;57944;48.722;9.316;2023-08-12T13:37:24;10.90;;;7.47;;
2784;SDS011;57944;48.722;9.316;2023-08-12T13:39:54;12.13;;;7.30;;
2784;SDS011;57944;48.722;9.316;2023-08-12T13:42:25;8.90;;;7.50;;
2784;SDS011;57944;48.722;9.316;2023-08-12T13:44:55;12.50;;;8.13;;
2784;SDS011;57944;48.722;9.316;2023-08-12T13:47:26;9.70;;;7.70;;
2784;SDS011;57944;48.722;9.316;2023-08-12T13:49:59;11.80;;;7.97;;
2784;SDS011;57944;48.722;9.316;2023-08-12T13:52:30;12.73;;;8.50;;
2784;SDS011;57944;48.722;9.316;2023-08-12T13:55:01;13.33;;;8.57;;
2784;SDS011;57944;48.722;9.316;2023-08-12T13:57:32;13.13;;;8.40;;
2784;SDS011;57944;48.722;9.316;2023-08-12T14:00:03;11.37;;;8.17;;
2784;SDS011;57944;48.722;9.316;2023-08-12T14:02:42;11.67;;;10.43;;
2784;SDS011;57944;48.722;9.316;2023-08-12T14:05:17;10.80;;;7.20;;
2784;SDS011;57944;48.722;9.316;2023-08-12T14:07:48;8.50;;;6.27;;
2784;SDS011;57944;48.722;9.316;2023-08-12T14:10:19;7.57;;;5.67;;
2784;SDS011;57944;48.722;9.316;2023-08-12T14:12:49;5.93;;;3.90;;
2784;SDS011;57944;48.722;9.316;2023-08-12T14:15:20;5.30;;;3.67;;
2784;SDS011;57944;48.722;9.316;2023-08-12T14:17:51;6.63;;;3.90;;
2784;SDS011;57944;48.722;9.316;2023-08-12T14:20:24;5.17;;;3.50;;
2784;SDS011;57944;48.722;9.316;2023-08-12T14:22:54;5.30;;;3.10;;
2784;SDS011;57944;48.722;9.316;2023-08-12T14:25:26;6.70;;;3.47;;
2784;SDS011;57944;48.722;9.316;2023-08-12T14:27:56;4.67;;;3.30;;
2784;SDS011;57944;48.722;9.316;2023-08-12T14:30:27;6.67;;;3.13;;
2784;SDS011;57944;48.722;9.316;2023-08-12T14:32:57;4.87;;;3.73;;
2784;SDS011;57944;48.722;9.316;2023-08-12T14:35:30;4.47;;;3.03;;
2784;SDS011;57944;48.722;9.316;2023-08-12T14:38:03;12.93;;;3.60;;
2784;SDS011;57944;48.722;9.316;2023-08-12T14:40:33;8.97;;;3.97;;
2784;SDS011;57944;48.722;9.316;2023-08-12T14:43:04;5.10;;;2.90;;
2784;SDS011;57944;48.722;9.316;2023-08-12T14:45:34;4.70;;;3.20;;
2784;SDS011;57944;48.722;9.316;2023-08-12T14:48:05;5.53;;;2.70;;
2784;SDS011;57944;48.722;9.316;2023-08-12T14:50:39;4.93;;;3.07;;
2784;SDS011;57944;48.722;9.316;2023-08-12T14:53:10;5.47;;;3.50;;
2784;SDS011;57944;48.722;9.316;2023-08-12T14:55:40;4.03;;;3.07;;
2784;SDS011;57944;48.722;9.316;2023-08-12T14:58:14;4.97;;;3.13;;
2784;SDS011;57944;48.722;9.316;2023-08-12T15:00:46;5.80;;;2.90;;
2784;SDS011;57944;48.722;9.316;2023-08-12T15:03:16;4.10;;;2.57;;
2784;SDS011;57944;48.722;9.316;2023-08-12T15:05:57;4.77;;;2.90;;
2784;SDS011;57944;48.722;9.316;2023-08-12T15:08:30;5.27;;;3.07;;
2784;SDS011;57944;48.722;9.316;2023-08-12T15:11:01;5.20;;;2.30;;
2784;SDS011;57944;48.722;9.316;2023-08-12T15:13:31;4.77;;;2.80;;
2784;SDS011;57944;48.722;9.316;2023-08-12T15:16:02;4.30;;;2.70;;
2784;SDS011;57944;48.722;9.316;2023-08-12T15:18:34;7.57;;;4.10;;
2784;SDS011;57944;48.722;9.316;2023-08-12T15:21:07;8.03;;;4.97;;
2784;SDS011;57944;48.722;9.316;2023-08-12T15:23:38;6.80;;;4.03;;